sensor_id;sensor_type;location;lat;lon;timestamp;P1;durP1;ratioP1;P2;durP2;ratioP2
58518;SDS011;44310;48.106;12.008;2022-11-20T00:01:04;40.90;;;9.55;;
58518;SDS011;44310;48.106;12.008;2022-11-20T00:03:32;55.33;;;10.40;;
58518;SDS011;44310;48.106;12.008;2022-11-20T00:06:02;42.92;;;9.55;;
58518;SDS011;44310;48.106;12.008;2022-11-20T00:08:31;52.75;;;10.52;;
58518;SDS011;44310;48.106;12.008;2022-11-20T00:11:02;31.98;;;7.63;;
58518;SDS011;44310;48.106;12.008;2022-11-20T00:13:30;38.17;;;8.45;;
58518;SDS011;44310;48.106;12.008;2022-11-20T00:15:58;40.33;;;8.05;;
58518;SDS011;44310;48.106;12.008;2022-11-20T00:18:26;66.80;;;12.25;;
58518;SDS011;44310;48.106;12.008;2022-11-20T00:20:59;46.60;;;9.43;;
58518;SDS011;44310;48.106;12.008;2022-11-20T00:23:28;33.38;;;7.78;;
58518;SDS011;44310;48.106;12.008;2022-11-20T00:25:55;32.00;;;6.88;;
58518;SDS011;44310;48.106;12.008;2022-11-20T00:28:22;31.73;;;7.88;;
58518;SDS011;44310;48.106;12.008;2022-11-20T00:30:49;28.60;;;6.28;;
58518;SDS011;44310;48.106;12.008;2022-11-20T00:33:16;25.80;;;6.82;;
58518;SDS011;44310;48.106;12.008;2022-11-20T00:35:43;27.40;;;6.18;;
58518;SDS011;44310;48.106;12.008;2022-11-20T00:38:10;32.80;;;6.32;;
58518;SDS011;44310;48.106;12.008;2022-11-20T00:40:37;36.30;;;7.18;;
58518;SDS011;44310;48.106;12.008;2022-11-20T00:43:04;28.40;;;6.22;;
58518;SDS011;44310;48.106;12.008;2022-11-20T00:45:32;34.30;;;6.47;;
58518;SDS011;44310;48.106;12.008;2022-11-20T00:47:59;20.63;;;5.55;;
58518;SDS011;44310;48.106;12.008;2022-11-20T00:50:26;24.53;;;6.13;;
58518;SDS011;44310;48.106;12.008;2022-11-20T00:52:53;22.77;;;6.10;;
58518;SDS011;44310;48.106;12.008;2022-11-20T00:55:20;31.23;;;6.97;;
58518;SDS011;44310;48.106;12.008;2022-11-20T00:57:47;26.00;;;5.90;;
58518;SDS011;44310;48.106;12.008;2022-11-20T01:00:14;28.27;;;6.40;;
58518;SDS011;44310;48.106;12.008;2022-11-20T01:02:42;19.15;;;5.10;;
58518;SDS011;44310;48.106;12.008;2022-11-20T01:05:09;19.00;;;5.25;;
58518;SDS011;44310;48.106;12.008;2022-11-20T01:07:36;16.98;;;4.63;;
58518;SDS011;44310;48.106;12.008;2022-11-20T01:10:03;15.60;;;4.72;;
58518;SDS011;44310;48.106;12.008;2022-11-20T01:12:30;41.72;;;8.90;;
58518;SDS011;44310;48.106;12.008;2022-11-20T01:14:57;41.38;;;7.68;;
58518;SDS011;44310;48.106;12.008;2022-11-20T01:17:24;28.90;;;7.03;;
58518;SDS011;44310;48.106;12.008;2022-11-20T01:19:51;24.17;;;5.70;;
58518;SDS011;44310;48.106;12.008;2022-11-20T01:22:18;22.30;;;5.77;;
58518;SDS011;44310;48.106;12.008;2022-11-20T01:24:45;36.63;;;8.57;;
58518;SDS011;44310;48.106;12.008;2022-11-20T01:27:12;29.13;;;6.80;;
58518;SDS011;44310;48.106;12.008;2022-11-20T01:29:40;28.20;;;6.97;;
58518;SDS011;44310;48.106;12.008;2022-11-20T01:32:07;19.30;;;5.40;;
58518;SDS011;44310;48.106;12.008;2022-11-20T01:34:34;26.90;;;6.30;;
58518;SDS011;44310;48.106;12.008;2022-11-20T01:37:01;19.40;;;5.30;;
58518;SDS011;44310;48.106;12.008;2022-11-20T01:39:28;19.57;;;4.93;;
58518;SDS011;44310;48.106;12.008;2022-11-20T01:41:55;18.30;;;4.97;;
58518;SDS011;44310;48.106;12.008;2022-11-20T01:47:08;24.52;;;5.78;;
58518;SDS011;44310;48.106;12.008;2022-11-20T01:49:42;17.15;;;4.55;;
58518;SDS011;44310;48.106;12.008;2022-11-20T01:55:15;29.42;;;7.68;;
58518;SDS011;44310;48.106;12.008;2022-11-20T01:57:46;27.98;;;7.28;;
58518;SDS011;44310;48.106;12.008;2022-11-20T02:00:16;31.17;;;6.53;;
58518;SDS011;44310;48.106;12.008;2022-11-20T02:02:46;28.70;;;5.80;;
58518;SDS011;44310;48.106;12.008;2022-11-20T02:07:51;23.20;;;5.73;;
58518;SDS011;44310;48.106;12.008;2022-11-20T02:10:20;47.75;;;9.25;;
58518;SDS011;44310;48.106;12.008;2022-11-20T02:12:47;29.58;;;6.57;;
58518;SDS011;44310;48.106;12.008;2022-11-20T02:15:33;19.52;;;4.97;;
58518;SDS011;44310;48.106;12.008;2022-11-20T02:18:01;19.02;;;4.70;;
58518;SDS011;44310;48.106;12.008;2022-11-20T02:20:28;21.23;;;4.97;;
58518;SDS011;44310;48.106;12.008;2022-11-20T02:23:30;19.33;;;4.30;;
58518;SDS011;44310;48.106;12.008;2022-11-20T02:26:11;17.38;;;4.50;;
58518;SDS011;44310;48.106;12.008;2022-11-20T02:28:42;16.02;;;3.90;;
58518;SDS011;44310;48.106;12.008;2022-11-20T02:31:09;14.52;;;4.20;;
58518;SDS011;44310;48.106;12.008;2022-11-20T02:33:36;23.65;;;5.50;;
58518;SDS011;44310;48.106;12.008;2022-11-20T02:36:03;19.75;;;5.45;;
58518;SDS011;44310;48.106;12.008;2022-11-20T02:38:31;21.60;;;4.80;;
58518;SDS011;44310;48.106;12.008;2022-11-20T02:40:58;18.42;;;4.22;;
58518;SDS011;44310;48.106;12.008;2022-11-20T02:43:25;16.08;;;4.00;;
58518;SDS011;44310;48.106;12.008;2022-11-20T02:45:52;16.90;;;4.10;;
58518;SDS011;44310;48.106;12.008;2022-11-20T02:48:19;8.90;;;3.70;;
58518;SDS011;44310;48.106;12.008;2022-11-20T02:50:46;10.60;;;3.42;;
58518;SDS011;44310;48.106;12.008;2022-11-20T02:53:13;7.35;;;3.10;;
58518;SDS011;44310;48.106;12.008;2022-11-20T02:55:40;7.30;;;3.60;;
58518;SDS011;44310;48.106;12.008;2022-11-20T02:58:08;15.52;;;4.35;;
58518;SDS011;44310;48.106;12.008;2022-11-20T03:00:35;14.50;;;4.63;;
58518;SDS011;44310;48.106;12.008;2022-11-20T03:03:02;15.40;;;4.60;;
58518;SDS011;44310;48.106;12.008;2022-11-20T03:05:30;10.55;;;4.03;;
58518;SDS011;44310;48.106;12.008;2022-11-20T03:07:57;11.80;;;3.85;;
58518;SDS011;44310;48.106;12.008;2022-11-20T03:10:24;9.48;;;3.42;;
58518;SDS011;44310;48.106;12.008;2022-11-20T03:12:54;9.65;;;3.33;;
58518;SDS011;44310;48.106;12.008;2022-11-20T03:15:22;7.10;;;3.35;;
58518;SDS011;44310;48.106;12.008;2022-11-20T03:17:52;8.80;;;3.50;;
58518;SDS011;44310;48.106;12.008;2022-11-20T03:20:21;14.07;;;4.18;;
58518;SDS011;44310;48.106;12.008;2022-11-20T03:22:49;18.95;;;4.53;;
58518;SDS011;44310;48.106;12.008;2022-11-20T03:25:16;18.00;;;5.30;;
58518;SDS011;44310;48.106;12.008;2022-11-20T03:27:43;18.27;;;5.78;;
58518;SDS011;44310;48.106;12.008;2022-11-20T03:30:10;12.73;;;4.50;;
58518;SDS011;44310;48.106;12.008;2022-11-20T03:32:38;13.90;;;4.10;;
58518;SDS011;44310;48.106;12.008;2022-11-20T03:35:05;15.23;;;4.55;;
58518;SDS011;44310;48.106;12.008;2022-11-20T03:37:32;16.42;;;5.55;;
58518;SDS011;44310;48.106;12.008;2022-11-20T03:39:59;34.00;;;8.27;;
58518;SDS011;44310;48.106;12.008;2022-11-20T03:42:26;14.50;;;4.45;;
58518;SDS011;44310;48.106;12.008;2022-11-20T03:45:12;16.30;;;4.87;;
58518;SDS011;44310;48.106;12.008;2022-11-20T03:47:41;18.02;;;4.70;;
58518;SDS011;44310;48.106;12.008;2022-11-20T03:50:09;25.95;;;5.78;;
58518;SDS011;44310;48.106;12.008;2022-11-20T03:52:39;20.55;;;6.00;;
58518;SDS011;44310;48.106;12.008;2022-11-20T03:55:06;25.65;;;6.35;;
58518;SDS011;44310;48.106;12.008;2022-11-20T03:57:34;33.78;;;7.07;;
58518;SDS011;44310;48.106;12.008;2022-11-20T04:00:01;22.98;;;6.57;;
58518;SDS011;44310;48.106;12.008;2022-11-20T04:02:29;27.65;;;6.20;;
58518;SDS011;44310;48.106;12.008;2022-11-20T04:04:56;29.75;;;6.75;;
58518;SDS011;44310;48.106;12.008;2022-11-20T04:07:23;26.77;;;5.80;;
58518;SDS011;44310;48.106;12.008;2022-11-20T04:09:51;20.55;;;5.43;;
58518;SDS011;44310;48.106;12.008;2022-11-20T04:12:18;16.95;;;5.10;;
58518;SDS011;44310;48.106;12.008;2022-11-20T04:14:45;18.98;;;5.07;;
58518;SDS011;44310;48.106;12.008;2022-11-20T04:17:12;13.40;;;4.30;;
58518;SDS011;44310;48.106;12.008;2022-11-20T04:19:39;11.82;;;4.18;;
58518;SDS011;44310;48.106;12.008;2022-11-20T04:22:06;16.95;;;4.55;;
58518;SDS011;44310;48.106;12.008;2022-11-20T04:24:33;38.90;;;8.88;;
58518;SDS011;44310;48.106;12.008;2022-11-20T04:27:00;33.40;;;7.13;;
58518;SDS011;44310;48.106;12.008;2022-11-20T04:29:27;21.63;;;5.22;;
58518;SDS011;44310;48.106;12.008;2022-11-20T04:31:54;23.92;;;5.75;;
58518;SDS011;44310;48.106;12.008;2022-11-20T04:34:21;20.20;;;5.03;;
58518;SDS011;44310;48.106;12.008;2022-11-20T04:36:48;20.10;;;5.13;;
58518;SDS011;44310;48.106;12.008;2022-11-20T04:39:15;14.88;;;4.55;;
58518;SDS011;44310;48.106;12.008;2022-11-20T04:41:43;17.03;;;4.10;;
58518;SDS011;44310;48.106;12.008;2022-11-20T04:44:11;18.25;;;3.75;;
58518;SDS011;44310;48.106;12.008;2022-11-20T04:46:39;12.48;;;4.13;;
58518;SDS011;44310;48.106;12.008;2022-11-20T04:49:07;16.75;;;4.38;;
58518;SDS011;44310;48.106;12.008;2022-11-20T04:51:35;18.20;;;3.92;;
58518;SDS011;44310;48.106;12.008;2022-11-20T04:54:02;18.85;;;4.93;;
58518;SDS011;44310;48.106;12.008;2022-11-20T04:56:29;18.63;;;4.55;;
58518;SDS011;44310;48.106;12.008;2022-11-20T04:58:59;28.38;;;5.25;;
58518;SDS011;44310;48.106;12.008;2022-11-20T05:01:28;24.80;;;4.75;;
58518;SDS011;44310;48.106;12.008;2022-11-20T05:03:55;23.55;;;5.28;;
58518;SDS011;44310;48.106;12.008;2022-11-20T05:06:22;18.42;;;4.47;;
58518;SDS011;44310;48.106;12.008;2022-11-20T05:08:49;10.30;;;3.15;;
58518;SDS011;44310;48.106;12.008;2022-11-20T05:11:18;12.32;;;3.63;;
58518;SDS011;44310;48.106;12.008;2022-11-20T05:13:46;11.73;;;3.05;;
58518;SDS011;44310;48.106;12.008;2022-11-20T05:16:15;16.00;;;3.67;;
58518;SDS011;44310;48.106;12.008;2022-11-20T05:18:45;6.60;;;3.00;;
58518;SDS011;44310;48.106;12.008;2022-11-20T05:21:13;9.73;;;2.80;;
58518;SDS011;44310;48.106;12.008;2022-11-20T05:23:40;12.00;;;2.83;;
58518;SDS011;44310;48.106;12.008;2022-11-20T05:26:11;7.00;;;2.60;;
58518;SDS011;44310;48.106;12.008;2022-11-20T05:28:43;16.00;;;3.47;;
58518;SDS011;44310;48.106;12.008;2022-11-20T05:31:12;9.25;;;2.90;;
58518;SDS011;44310;48.106;12.008;2022-11-20T05:33:54;28.17;;;5.20;;
58518;SDS011;44310;48.106;12.008;2022-11-20T05:36:23;15.32;;;3.75;;
58518;SDS011;44310;48.106;12.008;2022-11-20T05:38:50;18.30;;;3.97;;
58518;SDS011;44310;48.106;12.008;2022-11-20T05:41:24;13.40;;;3.65;;
58518;SDS011;44310;48.106;12.008;2022-11-20T05:43:51;26.30;;;5.30;;
58518;SDS011;44310;48.106;12.008;2022-11-20T05:46:19;31.75;;;6.35;;
58518;SDS011;44310;48.106;12.008;2022-11-20T05:48:54;16.67;;;3.85;;
58518;SDS011;44310;48.106;12.008;2022-11-20T05:51:21;27.77;;;4.97;;
58518;SDS011;44310;48.106;12.008;2022-11-20T05:53:49;18.08;;;4.10;;
58518;SDS011;44310;48.106;12.008;2022-11-20T05:56:17;17.17;;;3.58;;
58518;SDS011;44310;48.106;12.008;2022-11-20T05:58:46;16.15;;;4.00;;
58518;SDS011;44310;48.106;12.008;2022-11-20T06:01:20;12.40;;;3.03;;
58518;SDS011;44310;48.106;12.008;2022-11-20T06:03:52;15.70;;;3.38;;
58518;SDS011;44310;48.106;12.008;2022-11-20T06:06:21;18.73;;;5.50;;
58518;SDS011;44310;48.106;12.008;2022-11-20T06:08:49;21.98;;;4.95;;
58518;SDS011;44310;48.106;12.008;2022-11-20T06:11:16;16.35;;;3.83;;
58518;SDS011;44310;48.106;12.008;2022-11-20T06:13:44;18.77;;;3.72;;
58518;SDS011;44310;48.106;12.008;2022-11-20T06:16:13;13.90;;;3.93;;
58518;SDS011;44310;48.106;12.008;2022-11-20T06:18:42;12.25;;;3.35;;
58518;SDS011;44310;48.106;12.008;2022-11-20T06:21:10;14.63;;;4.15;;
58518;SDS011;44310;48.106;12.008;2022-11-20T06:23:39;13.18;;;4.45;;
58518;SDS011;44310;48.106;12.008;2022-11-20T06:26:07;12.97;;;3.63;;
58518;SDS011;44310;48.106;12.008;2022-11-20T06:28:38;13.40;;;4.00;;
58518;SDS011;44310;48.106;12.008;2022-11-20T06:31:06;11.57;;;3.80;;
58518;SDS011;44310;48.106;12.008;2022-11-20T06:33:34;10.57;;;3.53;;
58518;SDS011;44310;48.106;12.008;2022-11-20T06:36:01;12.32;;;3.60;;
58518;SDS011;44310;48.106;12.008;2022-11-20T06:38:36;10.93;;;3.67;;
58518;SDS011;44310;48.106;12.008;2022-11-20T06:41:04;15.10;;;4.30;;
58518;SDS011;44310;48.106;12.008;2022-11-20T06:43:36;15.73;;;4.40;;
58518;SDS011;44310;48.106;12.008;2022-11-20T06:46:03;16.30;;;5.25;;
58518;SDS011;44310;48.106;12.008;2022-11-20T06:48:30;22.85;;;6.07;;
58518;SDS011;44310;48.106;12.008;2022-11-20T06:50:58;24.35;;;6.40;;
58518;SDS011;44310;48.106;12.008;2022-11-20T06:53:25;21.00;;;6.23;;
58518;SDS011;44310;48.106;12.008;2022-11-20T06:55:52;29.43;;;6.27;;
58518;SDS011;44310;48.106;12.008;2022-11-20T06:58:26;24.15;;;6.68;;
58518;SDS011;44310;48.106;12.008;2022-11-20T07:00:58;30.70;;;7.25;;
58518;SDS011;44310;48.106;12.008;2022-11-20T07:03:26;31.63;;;6.97;;
58518;SDS011;44310;48.106;12.008;2022-11-20T07:05:56;28.90;;;7.07;;
58518;SDS011;44310;48.106;12.008;2022-11-20T07:08:24;28.70;;;6.82;;
58518;SDS011;44310;48.106;12.008;2022-11-20T07:10:51;24.98;;;5.65;;
58518;SDS011;44310;48.106;12.008;2022-11-20T07:13:18;27.17;;;6.15;;
58518;SDS011;44310;48.106;12.008;2022-11-20T07:15:45;28.37;;;6.60;;
58518;SDS011;44310;48.106;12.008;2022-11-20T07:18:13;24.27;;;5.13;;
58518;SDS011;44310;48.106;12.008;2022-11-20T07:20:40;20.63;;;4.40;;
58518;SDS011;44310;48.106;12.008;2022-11-20T07:23:07;13.63;;;4.70;;
58518;SDS011;44310;48.106;12.008;2022-11-20T07:25:34;49.63;;;10.10;;
58518;SDS011;44310;48.106;12.008;2022-11-20T07:28:01;59.00;;;9.83;;
58518;SDS011;44310;48.106;12.008;2022-11-20T07:30:28;41.70;;;8.50;;
58518;SDS011;44310;48.106;12.008;2022-11-20T07:32:55;39.60;;;7.28;;
58518;SDS011;44310;48.106;12.008;2022-11-20T07:35:23;36.33;;;7.47;;
58518;SDS011;44310;48.106;12.008;2022-11-20T07:37:51;31.42;;;6.63;;
58518;SDS011;44310;48.106;12.008;2022-11-20T07:40:18;35.08;;;6.57;;
58518;SDS011;44310;48.106;12.008;2022-11-20T07:42:49;31.95;;;7.75;;
58518;SDS011;44310;48.106;12.008;2022-11-20T07:45:18;31.80;;;6.43;;
58518;SDS011;44310;48.106;12.008;2022-11-20T07:47:46;29.35;;;6.78;;
58518;SDS011;44310;48.106;12.008;2022-11-20T07:50:13;32.83;;;6.20;;
58518;SDS011;44310;48.106;12.008;2022-11-20T07:52:40;38.47;;;6.88;;
58518;SDS011;44310;48.106;12.008;2022-11-20T07:55:08;34.50;;;6.90;;
58518;SDS011;44310;48.106;12.008;2022-11-20T07:57:36;34.40;;;7.65;;
58518;SDS011;44310;48.106;12.008;2022-11-20T08:00:03;26.90;;;5.88;;
58518;SDS011;44310;48.106;12.008;2022-11-20T08:02:32;25.47;;;5.80;;
58518;SDS011;44310;48.106;12.008;2022-11-20T08:04:59;22.50;;;5.23;;
58518;SDS011;44310;48.106;12.008;2022-11-20T08:07:26;27.50;;;5.50;;
58518;SDS011;44310;48.106;12.008;2022-11-20T08:09:53;32.70;;;6.38;;
58518;SDS011;44310;48.106;12.008;2022-11-20T08:12:20;36.80;;;6.80;;
58518;SDS011;44310;48.106;12.008;2022-11-20T08:15:06;37.40;;;7.57;;
58518;SDS011;44310;48.106;12.008;2022-11-20T08:17:39;35.75;;;7.00;;
58518;SDS011;44310;48.106;12.008;2022-11-20T08:20:06;41.08;;;7.45;;
58518;SDS011;44310;48.106;12.008;2022-11-20T08:22:33;34.35;;;6.57;;
58518;SDS011;44310;48.106;12.008;2022-11-20T08:25:00;39.55;;;7.18;;
58518;SDS011;44310;48.106;12.008;2022-11-20T08:27:28;106.60;;;18.27;;
58518;SDS011;44310;48.106;12.008;2022-11-20T08:29:55;70.13;;;12.93;;
58518;SDS011;44310;48.106;12.008;2022-11-20T08:32:23;58.70;;;10.10;;
58518;SDS011;44310;48.106;12.008;2022-11-20T08:34:50;46.25;;;8.90;;
58518;SDS011;44310;48.106;12.008;2022-11-20T08:37:17;63.67;;;11.40;;
58518;SDS011;44310;48.106;12.008;2022-11-20T08:39:44;77.60;;;13.70;;
58518;SDS011;44310;48.106;12.008;2022-11-20T08:42:11;73.47;;;14.40;;
58518;SDS011;44310;48.106;12.008;2022-11-20T08:44:38;67.53;;;13.25;;
58518;SDS011;44310;48.106;12.008;2022-11-20T08:47:05;61.78;;;11.77;;
58518;SDS011;44310;48.106;12.008;2022-11-20T08:49:32;56.45;;;11.15;;
58518;SDS011;44310;48.106;12.008;2022-11-20T08:51:59;49.38;;;9.15;;
58518;SDS011;44310;48.106;12.008;2022-11-20T08:54:26;44.55;;;8.55;;
58518;SDS011;44310;48.106;12.008;2022-11-20T08:56:53;55.17;;;10.07;;
58518;SDS011;44310;48.106;12.008;2022-11-20T08:59:20;36.08;;;8.48;;
58518;SDS011;44310;48.106;12.008;2022-11-20T09:02:07;34.92;;;7.18;;
58518;SDS011;44310;48.106;12.008;2022-11-20T09:04:35;33.63;;;7.63;;
58518;SDS011;44310;48.106;12.008;2022-11-20T09:07:02;31.42;;;6.97;;
58518;SDS011;44310;48.106;12.008;2022-11-20T09:09:29;39.35;;;7.25;;
58518;SDS011;44310;48.106;12.008;2022-11-20T09:11:57;35.40;;;6.90;;
58518;SDS011;44310;48.106;12.008;2022-11-20T09:14:24;29.45;;;6.38;;
58518;SDS011;44310;48.106;12.008;2022-11-20T09:16:55;29.38;;;6.20;;
58518;SDS011;44310;48.106;12.008;2022-11-20T09:19:23;30.70;;;7.05;;
58518;SDS011;44310;48.106;12.008;2022-11-20T09:22:02;22.50;;;6.13;;
58518;SDS011;44310;48.106;12.008;2022-11-20T09:24:29;19.55;;;5.55;;
58518;SDS011;44310;48.106;12.008;2022-11-20T09:26:56;20.92;;;5.43;;
58518;SDS011;44310;48.106;12.008;2022-11-20T09:29:23;15.57;;;4.85;;
58518;SDS011;44310;48.106;12.008;2022-11-20T09:31:50;19.45;;;4.38;;
58518;SDS011;44310;48.106;12.008;2022-11-20T09:34:17;19.08;;;4.57;;
58518;SDS011;44310;48.106;12.008;2022-11-20T09:36:44;19.50;;;4.93;;
58518;SDS011;44310;48.106;12.008;2022-11-20T09:39:11;16.73;;;4.18;;
58518;SDS011;44310;48.106;12.008;2022-11-20T09:47:22;12.15;;;3.53;;
58518;SDS011;44310;48.106;12.008;2022-11-20T09:50:25;16.52;;;3.78;;
58518;SDS011;44310;48.106;12.008;2022-11-20T09:52:59;13.57;;;3.58;;
58518;SDS011;44310;48.106;12.008;2022-11-20T09:55:34;25.13;;;5.33;;
58518;SDS011;44310;48.106;12.008;2022-11-20T09:58:05;35.30;;;5.90;;
58518;SDS011;44310;48.106;12.008;2022-11-20T10:00:34;23.70;;;5.00;;
58518;SDS011;44310;48.106;12.008;2022-11-20T10:06:13;17.60;;;4.70;;
58518;SDS011;44310;48.106;12.008;2022-11-20T10:20:27;14.18;;;3.20;;
58518;SDS011;44310;48.106;12.008;2022-11-20T10:26:03;11.93;;;3.23;;
58518;SDS011;44310;48.106;12.008;2022-11-20T10:33:58;17.85;;;3.42;;
58518;SDS011;44310;48.106;12.008;2022-11-20T10:36:44;10.75;;;3.00;;
58518;SDS011;44310;48.106;12.008;2022-11-20T10:39:18;13.10;;;3.10;;
58518;SDS011;44310;48.106;12.008;2022-11-20T10:41:52;10.45;;;3.15;;
58518;SDS011;44310;48.106;12.008;2022-11-20T10:44:21;11.07;;;2.58;;
58518;SDS011;44310;48.106;12.008;2022-11-20T10:47:17;10.80;;;2.85;;
58518;SDS011;44310;48.106;12.008;2022-11-20T10:49:46;11.32;;;3.05;;
58518;SDS011;44310;48.106;12.008;2022-11-20T11:00:30;14.23;;;3.40;;
58518;SDS011;44310;48.106;12.008;2022-11-20T11:02:58;13.65;;;3.88;;
58518;SDS011;44310;48.106;12.008;2022-11-20T11:08:10;21.20;;;4.35;;
58518;SDS011;44310;48.106;12.008;2022-11-20T11:13:20;71.95;;;13.80;;
58518;SDS011;44310;48.106;12.008;2022-11-20T11:15:51;62.80;;;11.13;;
58518;SDS011;44310;48.106;12.008;2022-11-20T11:18:25;58.55;;;9.93;;
58518;SDS011;44310;48.106;12.008;2022-11-20T11:20:55;53.60;;;8.98;;
58518;SDS011;44310;48.106;12.008;2022-11-20T11:23:29;48.20;;;7.43;;
58518;SDS011;44310;48.106;12.008;2022-11-20T11:25:58;35.38;;;6.18;;
58518;SDS011;44310;48.106;12.008;2022-11-20T11:28:27;26.65;;;5.35;;
58518;SDS011;44310;48.106;12.008;2022-11-20T11:30:55;18.45;;;4.10;;
58518;SDS011;44310;48.106;12.008;2022-11-20T11:33:29;24.80;;;4.45;;
58518;SDS011;44310;48.106;12.008;2022-11-20T11:36:00;21.50;;;3.95;;
58518;SDS011;44310;48.106;12.008;2022-11-20T11:38:32;14.93;;;3.80;;
58518;SDS011;44310;48.106;12.008;2022-11-20T11:41:03;21.52;;;3.97;;
58518;SDS011;44310;48.106;12.008;2022-11-20T11:43:32;17.15;;;3.33;;
58518;SDS011;44310;48.106;12.008;2022-11-20T11:51:45;12.80;;;2.85;;
58518;SDS011;44310;48.106;12.008;2022-11-20T11:55:07;17.95;;;3.50;;
58518;SDS011;44310;48.106;12.008;2022-11-20T11:59:59;16.00;;;3.40;;
58518;SDS011;44310;48.106;12.008;2022-11-20T12:05:23;11.85;;;3.28;;
58518;SDS011;44310;48.106;12.008;2022-11-20T12:10:40;10.93;;;2.63;;
58518;SDS011;44310;48.106;12.008;2022-11-20T12:15:54;13.63;;;2.88;;
58518;SDS011;44310;48.106;12.008;2022-11-20T12:18:21;25.25;;;4.75;;
58518;SDS011;44310;48.106;12.008;2022-11-20T12:29:43;24.55;;;4.28;;
58518;SDS011;44310;48.106;12.008;2022-11-20T12:35:39;24.65;;;4.80;;
58518;SDS011;44310;48.106;12.008;2022-11-20T12:38:39;23.35;;;4.70;;
58518;SDS011;44310;48.106;12.008;2022-11-20T12:58:16;25.13;;;4.25;;
58518;SDS011;44310;48.106;12.008;2022-11-20T13:01:16;31.63;;;5.50;;
58518;SDS011;44310;48.106;12.008;2022-11-20T13:06:46;37.92;;;6.97;;
58518;SDS011;44310;48.106;12.008;2022-11-20T13:09:16;34.65;;;5.55;;
58518;SDS011;44310;48.106;12.008;2022-11-20T13:17:17;23.38;;;4.53;;
58518;SDS011;44310;48.106;12.008;2022-11-20T13:20:12;23.02;;;4.40;;
58518;SDS011;44310;48.106;12.008;2022-11-20T13:22:43;15.63;;;3.65;;
58518;SDS011;44310;48.106;12.008;2022-11-20T13:25:24;18.17;;;3.67;;
58518;SDS011;44310;48.106;12.008;2022-11-20T13:27:52;13.80;;;3.20;;
58518;SDS011;44310;48.106;12.008;2022-11-20T13:30:21;16.63;;;3.50;;
58518;SDS011;44310;48.106;12.008;2022-11-20T13:33:08;12.75;;;3.70;;
58518;SDS011;44310;48.106;12.008;2022-11-20T13:35:57;13.70;;;3.20;;
58518;SDS011;44310;48.106;12.008;2022-11-20T13:38:51;12.63;;;3.17;;
58518;SDS011;44310;48.106;12.008;2022-11-20T13:41:24;9.27;;;2.27;;
58518;SDS011;44310;48.106;12.008;2022-11-20T13:44:06;11.13;;;3.08;;
58518;SDS011;44310;48.106;12.008;2022-11-20T13:46:55;10.27;;;2.72;;
58518;SDS011;44310;48.106;12.008;2022-11-20T14:00:58;20.58;;;4.53;;
58518;SDS011;44310;48.106;12.008;2022-11-20T14:03:34;29.17;;;4.83;;
58518;SDS011;44310;48.106;12.008;2022-11-20T14:08:58;28.88;;;5.97;;
58518;SDS011;44310;48.106;12.008;2022-11-20T14:11:27;21.98;;;4.25;;
58518;SDS011;44310;48.106;12.008;2022-11-20T14:13:57;24.88;;;4.93;;
58518;SDS011;44310;48.106;12.008;2022-11-20T14:16:25;23.45;;;4.93;;
58518;SDS011;44310;48.106;12.008;2022-11-20T14:18:54;24.48;;;4.47;;
58518;SDS011;44310;48.106;12.008;2022-11-20T14:21:24;25.77;;;4.47;;
58518;SDS011;44310;48.106;12.008;2022-11-20T14:24:02;19.17;;;3.83;;
58518;SDS011;44310;48.106;12.008;2022-11-20T14:26:33;31.93;;;5.13;;
58518;SDS011;44310;48.106;12.008;2022-11-20T14:29:00;18.55;;;3.75;;
58518;SDS011;44310;48.106;12.008;2022-11-20T14:31:27;22.33;;;4.57;;
58518;SDS011;44310;48.106;12.008;2022-11-20T14:33:55;26.60;;;5.23;;
58518;SDS011;44310;48.106;12.008;2022-11-20T14:36:23;64.47;;;10.98;;
58518;SDS011;44310;48.106;12.008;2022-11-20T14:38:51;183.15;;;29.38;;
58518;SDS011;44310;48.106;12.008;2022-11-20T14:41:21;100.88;;;17.42;;
58518;SDS011;44310;48.106;12.008;2022-11-20T14:43:51;77.53;;;12.52;;
58518;SDS011;44310;48.106;12.008;2022-11-20T14:46:29;76.05;;;12.63;;
58518;SDS011;44310;48.106;12.008;2022-11-20T14:49:00;114.03;;;19.63;;
58518;SDS011;44310;48.106;12.008;2022-11-20T14:54:11;78.55;;;14.30;;
58518;SDS011;44310;48.106;12.008;2022-11-20T14:59:48;80.13;;;13.18;;
58518;SDS011;44310;48.106;12.008;2022-11-20T15:02:15;85.70;;;14.70;;
58518;SDS011;44310;48.106;12.008;2022-11-20T15:04:46;129.25;;;20.88;;
58518;SDS011;44310;48.106;12.008;2022-11-20T15:07:34;137.37;;;22.23;;
58518;SDS011;44310;48.106;12.008;2022-11-20T15:10:04;191.35;;;29.58;;
58518;SDS011;44310;48.106;12.008;2022-11-20T15:12:32;167.07;;;25.38;;
58518;SDS011;44310;48.106;12.008;2022-11-20T15:15:02;158.52;;;25.90;;
58518;SDS011;44310;48.106;12.008;2022-11-20T15:17:31;138.55;;;24.17;;
58518;SDS011;44310;48.106;12.008;2022-11-20T15:20:11;134.73;;;22.37;;
58518;SDS011;44310;48.106;12.008;2022-11-20T15:22:41;104.27;;;17.37;;
58518;SDS011;44310;48.106;12.008;2022-11-20T15:25:15;116.68;;;18.20;;
58518;SDS011;44310;48.106;12.008;2022-11-20T15:27:44;116.07;;;19.85;;
58518;SDS011;44310;48.106;12.008;2022-11-20T15:30:16;88.22;;;16.08;;
58518;SDS011;44310;48.106;12.008;2022-11-20T15:32:45;270.30;;;39.63;;
58518;SDS011;44310;48.106;12.008;2022-11-20T15:35:13;121.25;;;19.27;;
58518;SDS011;44310;48.106;12.008;2022-11-20T15:37:41;112.65;;;19.67;;
58518;SDS011;44310;48.106;12.008;2022-11-20T15:40:09;146.50;;;22.15;;
58518;SDS011;44310;48.106;12.008;2022-11-20T15:42:38;83.57;;;14.97;;
58518;SDS011;44310;48.106;12.008;2022-11-20T15:45:25;110.93;;;18.93;;
58518;SDS011;44310;48.106;12.008;2022-11-20T15:47:54;79.85;;;15.15;;
58518;SDS011;44310;48.106;12.008;2022-11-20T15:50:21;73.45;;;12.38;;
58518;SDS011;44310;48.106;12.008;2022-11-20T15:52:53;122.72;;;18.25;;
58518;SDS011;44310;48.106;12.008;2022-11-20T15:55:20;112.85;;;18.27;;
58518;SDS011;44310;48.106;12.008;2022-11-20T15:57:47;160.45;;;25.25;;
58518;SDS011;44310;48.106;12.008;2022-11-20T16:00:14;94.85;;;16.52;;
58518;SDS011;44310;48.106;12.008;2022-11-20T16:02:49;80.90;;;15.40;;
58518;SDS011;44310;48.106;12.008;2022-11-20T16:05:16;75.20;;;13.13;;
58518;SDS011;44310;48.106;12.008;2022-11-20T16:07:44;83.13;;;12.73;;
58518;SDS011;44310;48.106;12.008;2022-11-20T16:10:11;76.13;;;13.40;;
58518;SDS011;44310;48.106;12.008;2022-11-20T16:12:38;74.53;;;13.05;;
58518;SDS011;44310;48.106;12.008;2022-11-20T16:15:23;64.07;;;10.60;;
58518;SDS011;44310;48.106;12.008;2022-11-20T16:18:10;57.17;;;10.20;;
58518;SDS011;44310;48.106;12.008;2022-11-20T16:20:38;62.15;;;10.40;;
58518;SDS011;44310;48.106;12.008;2022-11-20T16:23:06;47.67;;;9.17;;
58518;SDS011;44310;48.106;12.008;2022-11-20T16:25:33;56.22;;;9.63;;
58518;SDS011;44310;48.106;12.008;2022-11-20T16:28:00;52.15;;;9.38;;
58518;SDS011;44310;48.106;12.008;2022-11-20T16:30:28;40.85;;;8.35;;
58518;SDS011;44310;48.106;12.008;2022-11-20T16:32:55;52.13;;;9.80;;
58518;SDS011;44310;48.106;12.008;2022-11-20T16:35:22;49.87;;;9.47;;
58518;SDS011;44310;48.106;12.008;2022-11-20T16:37:49;44.47;;;9.35;;
58518;SDS011;44310;48.106;12.008;2022-11-20T16:40:16;44.92;;;7.45;;